createdAt,value
2022-11-26T00:00:55.763Z,60.33
2022-11-26T00:04:03.240Z,57.00
2022-11-26T00:07:06.756Z,60.00
2022-11-26T00:10:20.068Z,60.80
2022-11-26T00:13:26.079Z,59.20
2022-11-26T00:16:31.401Z,60.00
2022-11-26T00:19:36.058Z,56.80
2022-11-26T00:22:42.037Z,56.40
2022-11-26T00:25:48.043Z,57.00
2022-11-26T00:28:54.327Z,58.75
2022-11-26T00:31:58.277Z,58.00
2022-11-26T00:35:03.233Z,57.80
2022-11-26T00:38:06.553Z,57.20
2022-11-26T00:41:18.136Z,54.00
2022-11-26T00:44:23.569Z,61.00
2022-11-26T00:47:26.836Z,57.00
2022-11-26T00:50:38.346Z,60.00
2022-11-26T00:53:41.804Z,52.75
2022-11-26T00:56:45.325Z,52.20
2022-11-26T00:59:48.817Z,55.60
2022-11-26T01:02:53.032Z,55.40
2022-11-26T01:06:00.162Z,60.00
2022-11-26T01:09:05.618Z,58.00
2022-11-26T01:12:14.832Z,57.60
2022-11-26T01:15:20.149Z,59.50
2022-11-26T01:18:24.772Z,55.00
2022-11-26T01:21:31.378Z,54.00
2022-11-26T01:24:34.732Z,52.40
2022-11-26T01:27:37.979Z,54.80
2022-11-26T01:30:42.250Z,57.00
2022-11-26T01:33:45.706Z,51.60
2022-11-26T01:36:50.342Z,55.40
2022-11-26T01:39:53.597Z,51.75
2022-11-26T01:43:01.561Z,49.50
2022-11-26T01:46:04.793Z,50.00
2022-11-26T01:49:19.867Z,46.20
2022-11-26T01:52:26.997Z,46.20
2022-11-26T01:55:37.255Z,46.50
2022-11-26T01:58:44.381Z,43.40
2022-11-26T02:01:48.991Z,47.00
2022-11-26T02:04:59.579Z,43.60
2022-11-26T02:08:04.662Z,46.60
2022-11-26T02:11:16.514Z,47.80
2022-11-26T02:14:23.974Z,50.40
2022-11-26T02:17:37.959Z,48.40
2022-11-26T02:20:53.817Z,46.40
2022-11-26T02:24:36.531Z,49.60
2022-11-26T02:28:21.941Z,50.25
2022-11-26T02:31:35.936Z,46.50
2022-11-26T02:34:44.997Z,48.20
2022-11-26T02:37:52.834Z,49.00
2022-11-26T02:40:56.140Z,47.40
2022-11-26T02:43:59.456Z,47.00
2022-11-26T02:47:10.447Z,46.50
2022-11-26T02:50:20.162Z,46.80
2022-11-26T02:53:27.073Z,51.00
2022-11-26T02:56:31.533Z,47.00
2022-11-26T02:59:35.755Z,45.50
2022-11-26T03:02:46.361Z,49.60
2022-11-26T03:05:51.533Z,54.60
2022-11-26T03:08:56.915Z,51.40
2022-11-26T03:12:00.580Z,49.60
2022-11-26T03:15:04.074Z,53.25
2022-11-26T03:18:09.112Z,54.20
2022-11-26T03:21:13.142Z,51.00
2022-11-26T03:24:16.331Z,53.00
2022-11-26T03:27:19.506Z,50.00
2022-11-26T03:30:22.789Z,54.40
2022-11-26T03:33:27.525Z,53.00
2022-11-26T03:36:30.860Z,49.80
2022-11-26T03:39:34.069Z,50.00
2022-11-26T03:42:38.013Z,49.00
2022-11-26T03:45:41.354Z,52.50
2022-11-26T03:48:46.024Z,47.00
2022-11-26T03:51:49.503Z,46.60
2022-11-26T03:54:52.749Z,47.00
2022-11-26T03:57:56.053Z,45.00
2022-11-26T04:00:59.704Z,46.40
2022-11-26T04:04:05.488Z,49.00
2022-11-26T04:07:08.817Z,47.25
2022-11-26T04:10:12.361Z,48.00
2022-11-26T04:13:15.570Z,49.40
2022-11-26T04:16:18.865Z,53.00
2022-11-26T04:19:23.499Z,49.00
2022-11-26T04:22:26.691Z,49.00
2022-11-26T04:25:30.212Z,52.00
2022-11-26T04:28:33.686Z,56.00
2022-11-26T04:31:37.281Z,53.00
2022-11-26T04:34:42.091Z,56.25
2022-11-26T04:37:45.604Z,52.60
2022-11-26T04:40:49.383Z,59.00
2022-11-26T04:43:52.579Z,51.20
2022-11-26T04:46:55.897Z,54.40
2022-11-26T04:50:00.713Z,49.80
2022-11-26T04:53:04.836Z,45.20
2022-11-26T04:56:08.598Z,45.40
2022-11-26T04:59:11.771Z,43.00
2022-11-26T05:02:15.089Z,43.00
2022-11-26T05:05:19.978Z,41.80
2022-11-26T05:08:23.221Z,45.40
2022-11-26T05:11:26.811Z,32.00
2022-11-26T05:14:30.019Z,36.50
2022-11-26T05:17:33.594Z,35.60
2022-11-26T05:20:38.270Z,34.00
2022-11-26T05:23:41.538Z,39.00
2022-11-26T05:26:44.871Z,39.00
2022-11-26T05:29:48.244Z,35.00
2022-11-26T05:32:51.624Z,32.40
2022-11-26T05:35:56.314Z,40.00
2022-11-26T05:38:59.556Z,40.60
2022-11-26T05:42:08.809Z,48.50
2022-11-26T05:45:12.837Z,49.40
2022-11-26T05:48:16.225Z,51.60
2022-11-26T05:51:20.873Z,57.40
2022-11-26T05:54:24.285Z,57.40
2022-11-26T05:57:27.516Z,57.20
2022-11-26T06:00:31.192Z,57.00
2022-11-26T06:03:34.497Z,59.60
2022-11-26T06:06:39.148Z,60.25
2022-11-26T06:09:42.390Z,56.40
2022-11-26T06:12:46.016Z,59.50
2022-11-26T06:15:49.299Z,57.50
2022-11-26T06:18:52.799Z,53.00
2022-11-26T06:21:57.455Z,48.60
2022-11-26T06:25:00.643Z,50.40
2022-11-26T06:28:03.895Z,49.00
2022-11-26T06:31:09.326Z,49.00
2022-11-26T06:34:12.901Z,43.60
2022-11-26T06:37:17.570Z,39.60
2022-11-26T06:40:22.057Z,34.00
2022-11-26T06:43:25.566Z,37.80
2022-11-26T06:46:29.456Z,31.00
2022-11-26T06:49:33.018Z,33.67
2022-11-26T06:52:37.839Z,43.40
2022-11-26T06:55:41.431Z,34.00
2022-11-26T06:58:46.655Z,31.40
2022-11-26T07:01:50.029Z,31.00
2022-11-26T07:04:53.354Z,24.00
2022-11-26T07:07:57.972Z,25.00
2022-11-26T07:11:03.513Z,27.00
2022-11-26T07:14:07.371Z,24.00
2022-11-26T07:17:10.657Z,22.00
2022-11-26T07:20:15.280Z,20.20
2022-11-26T07:23:19.878Z,22.40
2022-11-26T07:26:24.133Z,24.25
2022-11-26T07:29:27.462Z,23.00
2022-11-26T07:32:31.199Z,24.00
2022-11-26T07:35:39.346Z,27.25
2022-11-26T07:38:43.976Z,23.60
2022-11-26T07:41:47.324Z,25.60
2022-11-26T07:44:50.898Z,27.00
2022-11-26T07:47:54.577Z,30.00
2022-11-26T07:50:57.918Z,32.80
2022-11-26T07:54:06.496Z,36.00
2022-11-26T07:57:09.734Z,40.00
2022-11-26T08:00:13.873Z,34.25
2022-11-26T08:03:17.287Z,31.40
2022-11-26T08:06:22.398Z,31.40
2022-11-26T08:09:27.770Z,38.80
2022-11-26T08:12:31.383Z,34.80
2022-11-26T08:15:35.617Z,32.40
2022-11-26T08:18:38.963Z,41.33
2022-11-26T08:21:42.940Z,44.20
2022-11-26T08:24:47.662Z,45.00
2022-11-26T08:27:51.090Z,45.00
2022-11-26T08:31:02.777Z,49.00
2022-11-26T08:34:05.985Z,49.50
2022-11-26T08:37:09.187Z,43.40
2022-11-26T08:40:14.742Z,47.00
2022-11-26T08:43:18.232Z,47.25
2022-11-26T08:46:22.856Z,49.40
2022-11-26T08:49:26.195Z,45.00
2022-11-26T08:52:29.653Z,50.00
2022-11-26T08:55:58.689Z,43.20
2022-11-26T08:58:57.577Z,49.00
2022-11-26T09:02:00.809Z,50.00
2022-11-26T09:05:04.076Z,50.00
2022-11-26T09:08:07.269Z,50.60
2022-11-26T09:11:11.956Z,52.75
2022-11-26T09:14:17.136Z,50.60
2022-11-26T09:17:20.338Z,52.00
2022-11-26T09:20:24.089Z,45.60
2022-11-26T09:23:27.363Z,53.00
2022-11-26T09:26:33.728Z,52.25
2022-11-26T09:29:37.723Z,52.80
2022-11-26T09:32:40.956Z,52.40
2022-11-26T09:35:44.212Z,53.00
2022-11-26T09:38:47.473Z,49.00
2022-11-26T09:42:01.053Z,56.00
2022-11-26T09:45:12.962Z,49.40
2022-11-26T09:48:21.183Z,54.00
2022-11-26T09:51:24.475Z,54.50
2022-11-26T09:54:30.672Z,53.00
2022-11-26T09:57:42.897Z,57.00
2022-11-26T10:00:48.814Z,57.00
2022-11-26T10:03:52.805Z,59.20
2022-11-26T10:07:07.199Z,57.00
2022-11-26T10:10:19.674Z,59.60
2022-11-26T10:13:33.155Z,60.00
2022-11-26T10:16:42.867Z,61.00
2022-11-26T10:20:01.590Z,58.80
2022-11-26T10:23:12.746Z,58.25
2022-11-26T10:26:18.915Z,60.20
2022-11-26T10:29:29.160Z,54.00
2022-11-26T10:32:38.426Z,56.00
2022-11-26T10:35:44.084Z,61.00
2022-11-26T10:38:47.389Z,60.00
2022-11-26T10:41:50.571Z,62.40
2022-11-26T10:44:55.383Z,61.60
2022-11-26T10:48:16.899Z,57.00
2022-11-26T10:51:30.365Z,59.40
2022-11-26T10:54:36.854Z,57.00
2022-11-26T10:57:48.448Z,56.00
2022-11-26T11:01:00.315Z,55.80
2022-11-26T11:04:10.569Z,58.50
2022-11-26T11:07:31.387Z,58.00
2022-11-26T11:10:35.683Z,53.20
2022-11-26T11:13:43.894Z,58.00
2022-11-26T11:16:49.127Z,51.50
2022-11-26T11:19:52.698Z,51.50
2022-11-26T11:23:08.868Z,53.40
2022-11-26T11:26:18.634Z,56.80
2022-11-26T11:29:32.935Z,54.80
2022-11-26T11:32:39.961Z,57.00
2022-11-26T11:35:43.328Z,54.60
2022-11-26T11:38:49.525Z,54.67
2022-11-26T11:41:52.870Z,51.80
2022-11-26T11:44:59.240Z,57.60
2022-11-26T11:48:17.447Z,55.25
2022-11-26T11:51:31.493Z,57.00
2022-11-26T11:54:47.799Z,56.40
2022-11-26T11:58:07.686Z,53.40
2022-11-26T12:01:24.436Z,56.00
2022-11-26T12:04:49.061Z,55.80
2022-11-26T12:08:00.185Z,56.00
2022-11-26T12:11:23.268Z,55.80
2022-11-26T12:14:31.814Z,53.60
2022-11-26T12:17:39.954Z,53.25
2022-11-26T12:20:49.692Z,55.60
2022-11-26T12:23:59.224Z,54.40
2022-11-26T12:27:07.714Z,53.00
2022-11-26T12:30:16.422Z,54.60
2022-11-26T12:33:24.789Z,54.80
2022-11-26T12:36:36.334Z,54.80
2022-11-26T12:39:51.865Z,53.60
2022-11-26T12:43:02.536Z,50.25
2022-11-26T12:46:10.785Z,53.00
2022-11-26T12:49:23.999Z,51.60
2022-11-26T12:52:39.992Z,50.80
2022-11-26T12:55:48.802Z,51.80
2022-11-26T12:59:03.110Z,47.80
2022-11-26T13:02:21.228Z,49.40
2022-11-26T13:05:35.555Z,50.00
2022-11-26T13:08:51.647Z,45.00
2022-11-26T13:12:05.983Z,46.75
2022-11-26T13:15:19.677Z,44.40
2022-11-26T13:18:31.971Z,45.40
2022-11-26T13:21:53.906Z,41.80
2022-11-26T13:25:18.845Z,38.25
2022-11-26T13:28:39.599Z,38.50
2022-11-26T13:32:05.194Z,39.00
2022-11-26T13:35:25.364Z,42.80
2022-11-26T13:38:42.140Z,42.00
2022-11-26T13:42:10.183Z,46.20
2022-11-26T13:45:34.618Z,38.00
2022-11-26T13:48:46.759Z,34.00
2022-11-26T13:51:55.602Z,38.80
2022-11-26T13:55:03.920Z,42.20
2022-11-26T13:58:19.251Z,31.20
2022-11-26T14:01:37.125Z,41.00
2022-11-26T14:04:53.938Z,36.00
2022-11-26T14:08:38.123Z,34.00
2022-11-26T14:11:57.031Z,42.60
2022-11-26T14:15:01.742Z,34.60
2022-11-26T14:18:05.267Z,40.00
2022-11-26T14:21:14.756Z,38.25
2022-11-26T14:24:55.226Z,42.00
2022-11-26T14:27:59.234Z,41.00
2022-11-26T14:31:15.545Z,35.60
2022-11-26T14:34:25.794Z,33.80
2022-11-26T14:37:31.488Z,33.00
2022-11-26T14:40:37.550Z,29.00
2022-11-26T14:43:40.792Z,40.75
2022-11-26T14:46:47.237Z,40.60
2022-11-26T14:49:54.393Z,44.40
2022-11-26T14:53:02.356Z,38.00
2022-11-26T14:56:07.300Z,45.00
2022-11-26T14:59:16.755Z,39.00
2022-11-26T15:02:25.242Z,43.80
2022-11-26T15:05:30.969Z,45.00
2022-11-26T15:08:34.309Z,46.60
2022-11-26T15:11:40.548Z,40.60
2022-11-26T15:14:47.784Z,38.20
2022-11-26T15:17:57.421Z,42.00
2022-11-26T15:21:03.347Z,45.50
2022-11-26T15:24:10.069Z,45.00
2022-11-26T15:27:29.178Z,41.00
2022-11-26T15:30:34.434Z,49.33
2022-11-26T15:33:40.320Z,45.20
2022-11-26T15:36:43.603Z,45.00
2022-11-26T15:39:46.892Z,45.00
2022-11-26T15:42:53.556Z,49.75
2022-11-26T15:46:01.233Z,42.40
2022-11-26T15:49:09.131Z,47.00
2022-11-26T15:52:14.153Z,47.00
2022-11-26T15:55:24.919Z,45.75
2022-11-26T15:58:32.279Z,42.00
2022-11-26T16:01:42.365Z,48.60
2022-11-26T16:04:49.884Z,45.60
2022-11-26T16:08:00.062Z,45.20
2022-11-26T16:11:09.983Z,47.00
2022-11-26T16:14:30.034Z,40.20
2022-11-26T16:17:34.219Z,46.80
2022-11-26T16:20:42.038Z,45.00
2022-11-26T16:23:52.276Z,50.25
2022-11-26T16:26:57.925Z,48.20
2022-11-26T16:30:03.375Z,51.80
2022-11-26T16:33:07.657Z,47.00
2022-11-26T16:36:23.047Z,50.60
2022-11-26T16:39:30.032Z,44.20
2022-11-26T16:42:33.981Z,51.60
2022-11-26T16:45:37.484Z,51.60
2022-11-26T16:48:42.595Z,53.00
2022-11-26T16:51:47.273Z,48.00
2022-11-26T16:54:50.826Z,54.20
2022-11-26T16:57:56.674Z,51.40
2022-11-26T17:01:00.940Z,49.60
2022-11-26T17:04:04.505Z,51.40
2022-11-26T17:07:10.177Z,53.25
2022-11-26T17:10:16.859Z,48.20
2022-11-26T17:13:21.200Z,52.75
2022-11-26T17:16:26.350Z,51.00
2022-11-26T17:19:29.985Z,50.00
2022-11-26T17:22:34.601Z,51.50
2022-11-26T17:25:37.826Z,46.60
2022-11-26T17:28:41.119Z,50.60
2022-11-26T17:31:44.404Z,49.33
2022-11-26T17:34:48.015Z,50.80
2022-11-26T17:37:52.617Z,49.20
2022-11-26T17:40:55.834Z,52.80
2022-11-26T17:43:59.636Z,53.80
2022-11-26T17:47:16.795Z,51.00
2022-11-26T17:50:23.032Z,50.25
2022-11-26T17:53:27.670Z,49.60
2022-11-26T17:56:31.415Z,47.00
2022-11-26T17:59:36.709Z,44.00
2022-11-26T18:02:40.239Z,46.40
2022-11-26T18:05:43.528Z,43.60
2022-11-26T18:08:48.124Z,45.00
2022-11-26T18:11:53.570Z,34.80
2022-11-26T18:14:58.601Z,40.00
2022-11-26T18:18:02.196Z,37.40
2022-11-26T18:21:06.036Z,40.80
2022-11-26T18:24:12.498Z,38.80
2022-11-26T18:27:15.692Z,36.00
2022-11-26T18:30:19.967Z,36.50
2022-11-26T18:33:23.256Z,33.75
2022-11-26T18:36:26.949Z,34.20
2022-11-26T18:39:31.781Z,33.40
2022-11-26T18:42:37.445Z,32.20
2022-11-26T18:45:43.130Z,34.40
2022-11-26T18:48:48.576Z,32.00
2022-11-26T18:51:51.765Z,30.20
2022-11-26T18:54:56.402Z,30.00
2022-11-26T18:58:02.879Z,30.40
2022-11-26T19:01:14.286Z,26.00
2022-11-26T19:04:17.625Z,28.00
2022-11-26T19:07:20.952Z,32.00
2022-11-26T19:10:26.394Z,33.60
2022-11-26T19:13:29.714Z,31.00
2022-11-26T19:16:33.152Z,33.00
2022-11-26T19:19:36.540Z,28.80
2022-11-26T19:22:40.452Z,29.20
2022-11-26T19:25:46.108Z,27.40
2022-11-26T19:28:50.140Z,31.00
2022-11-26T19:31:53.900Z,27.00
2022-11-26T19:35:01.274Z,27.00
2022-11-26T19:38:07.453Z,28.50
2022-11-26T19:41:12.866Z,27.50
2022-11-26T19:44:16.110Z,25.20
2022-11-26T19:47:19.610Z,35.25
2022-11-26T19:50:22.874Z,33.80
2022-11-26T19:53:26.500Z,34.75
2022-11-26T19:56:32.658Z,31.00
2022-11-26T19:59:35.961Z,33.00
2022-11-26T20:02:39.220Z,30.80
2022-11-26T20:05:42.739Z,29.20
2022-11-26T20:08:46.884Z,35.00
2022-11-26T20:11:51.860Z,36.40
2022-11-26T20:14:55.411Z,29.80
2022-11-26T20:17:58.864Z,31.25
2022-11-26T20:21:04.089Z,36.00
2022-11-26T20:24:10.626Z,26.00
2022-11-26T20:27:15.317Z,37.40
2022-11-26T20:30:20.373Z,45.50
2022-11-26T20:33:23.658Z,42.25
2022-11-26T20:36:27.184Z,35.75
2022-11-26T20:39:30.454Z,43.00
2022-11-26T20:42:35.567Z,43.20
2022-11-26T20:45:39.205Z,37.75
2022-11-26T20:48:44.079Z,44.00
2022-11-26T20:51:47.307Z,45.25
2022-11-26T20:54:53.687Z,45.40
2022-11-26T20:57:58.680Z,47.00
2022-11-26T21:01:02.280Z,44.60
2022-11-26T21:04:06.979Z,43.80
2022-11-26T21:07:10.715Z,47.00
2022-11-26T21:10:15.882Z,47.00
2022-11-26T21:13:22.731Z,47.00
2022-11-26T21:16:26.141Z,46.40
2022-11-26T21:19:29.759Z,45.00
2022-11-26T21:22:33.031Z,46.60
2022-11-26T21:25:38.153Z,44.25
2022-11-26T21:28:42.797Z,40.00
2022-11-26T21:31:46.018Z,43.80
2022-11-26T21:34:49.616Z,49.60
2022-11-26T21:37:52.803Z,45.00
2022-11-26T21:40:56.062Z,48.00
2022-11-26T21:44:04.248Z,50.00
2022-11-26T21:47:07.926Z,50.25
2022-11-26T21:50:11.773Z,47.00
2022-11-26T21:53:15.227Z,43.60
2022-11-26T21:56:20.523Z,47.75
2022-11-26T21:59:25.792Z,49.60
2022-11-26T22:02:29.225Z,45.50
2022-11-26T22:05:32.399Z,48.20
2022-11-26T22:08:36.241Z,50.00
2022-11-26T22:11:41.462Z,48.25
2022-11-26T22:14:46.464Z,44.80
2022-11-26T22:17:49.799Z,51.40
2022-11-26T22:20:53.608Z,43.40
2022-11-26T22:23:57.021Z,47.00
2022-11-26T22:27:00.499Z,38.20
2022-11-26T22:30:05.851Z,39.00
2022-11-26T22:33:09.663Z,37.40
2022-11-26T22:36:13.297Z,37.20
2022-11-26T22:39:18.160Z,43.80
2022-11-26T22:42:21.892Z,35.40
2022-11-26T22:45:27.188Z,27.20
2022-11-26T22:48:30.454Z,39.25
2022-11-26T22:51:36.020Z,31.75
2022-11-26T22:54:39.328Z,35.80
2022-11-26T22:57:42.816Z,40.00
2022-11-26T23:00:49.976Z,35.60
2022-11-26T23:03:54.340Z,30.00
2022-11-26T23:06:57.665Z,29.60
2022-11-26T23:10:00.894Z,32.20
2022-11-26T23:13:05.126Z,32.60
2022-11-26T23:16:10.668Z,29.50
2022-11-26T23:19:15.955Z,28.00
2022-11-26T23:22:19.326Z,28.00
2022-11-26T23:25:22.625Z,23.00
2022-11-26T23:28:25.848Z,28.60
2022-11-26T23:31:31.962Z,26.60
2022-11-26T23:34:35.314Z,27.00
2022-11-26T23:37:40.095Z,24.00
2022-11-26T23:40:43.371Z,24.60
2022-11-26T23:43:47.008Z,30.40
2022-11-26T23:46:51.675Z,26.60
2022-11-26T23:49:58.403Z,31.40
2022-11-26T23:53:04.046Z,27.00
2022-11-26T23:56:10.173Z,29.20
2022-11-26T23:59:14.238Z,31.75
